createdAt,value
2019-03-27T00:00:55.940Z,96989.98
2019-03-27T00:03:29.097Z,96984.10
2019-03-27T00:06:02.855Z,96985.01
2019-03-27T00:08:36.417Z,96986.36
2019-03-27T00:18:38.794Z,96988.42
2019-03-27T00:21:10.981Z,96991.63
2019-03-27T00:23:46.811Z,96989.05
2019-03-27T00:26:19.163Z,96991.77
2019-03-27T00:28:52.691Z,96990.89
2019-03-27T00:31:27.126Z,96992.68
2019-03-27T00:33:59.947Z,96995.72
2019-03-27T00:36:33.203Z,96998.29
2019-03-27T00:39:07.318Z,96992.83
2019-03-27T00:41:40.150Z,96996.81
2019-03-27T00:44:12.020Z,96990.75
2019-03-27T00:46:45.730Z,96986.69
2019-03-27T00:49:19.509Z,96989.59
2019-03-27T00:51:55.020Z,96995.69
2019-03-27T00:54:28.733Z,96992.52
2019-03-27T00:57:03.352Z,96987.18
2019-03-27T00:59:36.177Z,96985.00
2019-03-27T01:02:10.788Z,96989.80
2019-03-27T01:04:45.057Z,96987.22
2019-03-27T01:07:18.428Z,96993.88
2019-03-27T01:09:54.801Z,96987.02
2019-03-27T01:12:27.169Z,96993.85
2019-03-27T01:15:01.128Z,96991.33
2019-03-27T01:17:33.496Z,96989.70
2019-03-27T01:20:06.652Z,96990.37
2019-03-27T01:22:41.698Z,96990.97
2019-03-27T01:25:18.208Z,96986.42
2019-03-27T01:27:51.384Z,96991.73
2019-03-27T01:30:23.690Z,96992.11
2019-03-27T01:32:55.658Z,96995.80
2019-03-27T01:35:28.525Z,96992.32
2019-03-27T01:38:00.488Z,96993.17
2019-03-27T01:40:33.175Z,96989.63
2019-03-27T01:43:07.252Z,96986.42
2019-03-27T01:45:52.435Z,96984.88
2019-03-27T01:48:17.375Z,96986.72
2019-03-27T01:50:50.825Z,96986.09
2019-03-27T01:53:25.067Z,96986.16
2019-03-27T01:55:58.672Z,96985.78
2019-03-27T01:58:31.613Z,96992.23
2019-03-27T02:01:05.032Z,96988.89
2019-03-27T02:03:39.531Z,96992.30
2019-03-27T02:06:13.049Z,96993.08
2019-03-27T02:08:47.514Z,96989.20
2019-03-27T02:11:19.903Z,96994.47
2019-03-27T02:13:53.488Z,96990.61
2019-03-27T02:16:27.716Z,96996.55
2019-03-27T02:19:00.706Z,96999.86
2019-03-27T02:21:34.769Z,96995.67
2019-03-27T02:24:08.892Z,97000.68
2019-03-27T02:26:44.325Z,97006.20
2019-03-27T02:29:17.550Z,97005.33
2019-03-27T02:31:52.683Z,97001.02
2019-03-27T02:34:24.739Z,97000.14
2019-03-27T02:36:58.864Z,97005.36
2019-03-27T02:39:30.714Z,96953.88
2019-03-27T02:42:04.479Z,97006.93
2019-03-27T02:44:36.537Z,97008.30
2019-03-27T02:47:08.862Z,97012.42
2019-03-27T02:49:42.914Z,97017.02
2019-03-27T02:52:15.675Z,97018.02
2019-03-27T02:54:49.010Z,97013.69
2019-03-27T02:57:20.883Z,97021.02
2019-03-27T02:59:54.724Z,97022.13
2019-03-27T03:02:27.974Z,97027.97
2019-03-27T03:05:00.795Z,97019.75
2019-03-27T03:07:32.702Z,97023.98
2019-03-27T03:10:05.294Z,97028.47
2019-03-27T03:12:38.826Z,97030.70
2019-03-27T03:15:15.288Z,97031.69
2019-03-27T03:17:49.247Z,97039.52
2019-03-27T03:20:21.656Z,97036.05
2019-03-27T03:22:54.527Z,97040.73
2019-03-27T03:25:26.881Z,97031.59
2019-03-27T03:27:59.106Z,97034.31
2019-03-27T03:30:32.161Z,97045.13
2019-03-27T03:33:06.711Z,97043.27
2019-03-27T03:35:38.968Z,97043.94
2019-03-27T03:38:12.997Z,97048.16
2019-03-27T03:40:47.053Z,97046.33
2019-03-27T03:43:19.983Z,97046.17
2019-03-27T03:45:53.973Z,97043.84
2019-03-27T03:48:26.971Z,97044.37
2019-03-27T03:51:01.852Z,97048.21
2019-03-27T03:53:34.605Z,97045.17
2019-03-27T03:56:10.301Z,97052.53
2019-03-27T03:58:44.367Z,97047.34
2019-03-27T04:01:17.328Z,97051.70
2019-03-27T04:03:52.622Z,97049.60
2019-03-27T04:06:24.979Z,97057.22
2019-03-27T04:08:58.615Z,97059.12
2019-03-27T04:11:30.405Z,97055.56
2019-03-27T04:14:05.066Z,97066.92
2019-03-27T04:16:40.886Z,97060.94
2019-03-27T04:19:15.128Z,97061.98
2019-03-27T04:21:48.168Z,97069.41
2019-03-27T04:24:20.094Z,97070.67
2019-03-27T04:26:52.224Z,97073.70
2019-03-27T04:29:25.818Z,97082.49
2019-03-27T04:31:59.560Z,97078.69
2019-03-27T04:34:33.321Z,97079.45
2019-03-27T04:37:08.911Z,97078.88
2019-03-27T04:39:43.821Z,97081.05
2019-03-27T04:42:20.129Z,97085.46
2019-03-27T04:44:55.981Z,97086.43
2019-03-27T04:47:32.311Z,97083.76
2019-03-27T04:50:05.571Z,97087.54
2019-03-27T04:52:45.318Z,97091.14
2019-03-27T04:55:17.416Z,97095.75
2019-03-27T04:57:51.418Z,97098.75
2019-03-27T05:00:26.300Z,97101.72
2019-03-27T05:03:01.923Z,97109.32
2019-03-27T05:05:33.687Z,97109.09
2019-03-27T05:08:06.243Z,97109.61
2019-03-27T05:10:39.313Z,97113.30
2019-03-27T05:13:12.312Z,97117.70
2019-03-27T05:15:45.468Z,97119.29
2019-03-27T05:18:19.013Z,97122.72
2019-03-27T05:20:52.436Z,97119.23
2019-03-27T05:23:24.759Z,97125.45
2019-03-27T05:25:57.238Z,97122.20
2019-03-27T05:28:30.518Z,97120.91
2019-03-27T05:31:03.394Z,97121.52
2019-03-27T05:33:36.447Z,97114.70
2019-03-27T05:36:10.489Z,97120.96
2019-03-27T05:38:44.850Z,97118.86
2019-03-27T05:41:18.679Z,97120.61
2019-03-27T05:43:51.489Z,97129.80
2019-03-27T05:46:26.546Z,97129.36
2019-03-27T05:49:02.123Z,97132.73
2019-03-27T05:51:36.623Z,97137.67
2019-03-27T05:54:11.499Z,97136.84
2019-03-27T05:56:45.966Z,97138.53
2019-03-27T05:59:19.169Z,97141.48
2019-03-27T06:01:53.069Z,97144.89
2019-03-27T06:04:29.153Z,97150.75
2019-03-27T06:07:03.452Z,97145.87
2019-03-27T06:09:39.354Z,97150.29
2019-03-27T06:12:14.839Z,97150.70
2019-03-27T06:14:48.714Z,97149.87
2019-03-27T06:17:20.898Z,97158.99
2019-03-27T06:19:56.569Z,97166.16
2019-03-27T06:22:31.023Z,97163.92
2019-03-27T06:25:05.001Z,97164.78
2019-03-27T06:27:42.202Z,97165.95
2019-03-27T06:30:15.612Z,97172.52
2019-03-27T06:32:47.800Z,97171.06
2019-03-27T06:35:20.632Z,97170.53
2019-03-27T06:37:54.785Z,97174.81
2019-03-27T06:40:27.776Z,97182.25
2019-03-27T06:43:00.750Z,97182.29
2019-03-27T06:45:33.767Z,97186.84
2019-03-27T06:48:06.744Z,97194.25
2019-03-27T06:50:39.743Z,97189.78
2019-03-27T06:53:11.956Z,97198.31
2019-03-27T06:55:45.837Z,97196.92
2019-03-27T06:58:18.794Z,97199.27
2019-03-27T07:00:51.824Z,97203.55
2019-03-27T07:03:24.980Z,97202.99
2019-03-27T07:05:57.920Z,97205.55
2019-03-27T07:08:30.903Z,97210.17
2019-03-27T07:11:05.101Z,97208.68
2019-03-27T07:13:37.173Z,97213.59
2019-03-27T07:16:09.817Z,97214.56
2019-03-27T07:18:43.058Z,97217.02
2019-03-27T07:21:14.834Z,97226.00
2019-03-27T07:23:49.058Z,97220.70
2019-03-27T07:26:21.500Z,97223.41
2019-03-27T07:28:53.986Z,97223.53
2019-03-27T07:31:29.648Z,97224.27
2019-03-27T07:34:03.976Z,97228.80
2019-03-27T07:36:37.800Z,97233.99
2019-03-27T07:39:11.199Z,97230.49
2019-03-27T07:41:43.320Z,97236.72
2019-03-27T07:44:15.048Z,97236.34
2019-03-27T07:46:49.457Z,97236.11
2019-03-27T07:49:21.259Z,97240.09
2019-03-27T07:51:54.142Z,97242.98
2019-03-27T07:54:28.175Z,97242.37
2019-03-27T07:57:02.214Z,97243.29
2019-03-27T07:59:36.736Z,97242.63
2019-03-27T08:02:09.082Z,97244.06
2019-03-27T08:04:44.732Z,97249.30
2019-03-27T08:07:26.730Z,97242.33
2019-03-27T08:09:53.040Z,97240.91
2019-03-27T08:12:26.925Z,97247.08
2019-03-27T08:15:02.011Z,97244.35
2019-03-27T08:17:34.090Z,97239.70
2019-03-27T08:20:09.026Z,97247.88
2019-03-27T08:22:43.527Z,97244.84
2019-03-27T08:25:16.144Z,97245.15
2019-03-27T08:27:49.103Z,97253.03
2019-03-27T08:30:22.224Z,97254.23
2019-03-27T08:32:58.274Z,97249.20
2019-03-27T08:35:32.158Z,97253.38
2019-03-27T08:38:06.232Z,97256.44
2019-03-27T08:40:40.275Z,97257.21
2019-03-27T08:43:21.244Z,97256.84
2019-03-27T08:45:49.456Z,97260.02
2019-03-27T08:48:21.399Z,97263.96
2019-03-27T08:50:53.214Z,97267.06
2019-03-27T08:53:27.580Z,97268.83
2019-03-27T08:56:02.032Z,97262.66
2019-03-27T08:58:34.482Z,97267.09
2019-03-27T09:01:07.449Z,97273.75
2019-03-27T09:03:40.527Z,97271.55
2019-03-27T09:06:33.132Z,97269.45
2019-03-27T09:08:58.514Z,97263.86
2019-03-27T09:11:30.479Z,97266.14
2019-03-27T09:14:03.197Z,97274.31
2019-03-27T09:16:38.755Z,97271.84
2019-03-27T09:19:12.507Z,97274.31
2019-03-27T09:21:44.668Z,97278.26
2019-03-27T09:24:20.776Z,97279.20
2019-03-27T09:26:54.549Z,97277.48
2019-03-27T09:29:26.706Z,97285.38
2019-03-27T09:32:00.463Z,97278.95
2019-03-27T09:34:33.410Z,97280.09
2019-03-27T09:37:05.424Z,97284.33
2019-03-27T09:39:39.607Z,97287.05
2019-03-27T09:42:14.244Z,97287.38
2019-03-27T09:44:50.270Z,97291.36
2019-03-27T09:47:22.080Z,97296.05
2019-03-27T09:49:54.617Z,97292.50
2019-03-27T09:52:27.693Z,97295.67
2019-03-27T09:55:01.829Z,97297.94
2019-03-27T09:57:33.570Z,97298.90
2019-03-27T10:00:08.128Z,97296.75
2019-03-27T10:02:43.036Z,97298.83
2019-03-27T10:05:15.685Z,97300.87
2019-03-27T10:07:49.524Z,97301.89
2019-03-27T10:10:22.038Z,97298.84
2019-03-27T10:12:56.624Z,97296.69
2019-03-27T10:15:30.661Z,97290.41
2019-03-27T10:18:04.627Z,97301.02
2019-03-27T10:20:36.787Z,97299.27
2019-03-27T10:23:09.374Z,97289.37
2019-03-27T10:25:42.983Z,97289.64
2019-03-27T10:28:15.553Z,97288.68
2019-03-27T10:30:48.763Z,97296.95
2019-03-27T10:33:22.189Z,97301.02
2019-03-27T10:35:55.644Z,97300.96
2019-03-27T10:38:27.883Z,97301.92
2019-03-27T10:41:00.799Z,97305.61
2019-03-27T10:43:36.035Z,97303.75
2019-03-27T10:46:10.736Z,97306.16
2019-03-27T10:48:52.301Z,97304.16
2019-03-27T10:51:18.825Z,97302.55
2019-03-27T10:53:53.399Z,97302.11
2019-03-27T10:56:29.457Z,97312.31
2019-03-27T10:59:04.043Z,97312.45
2019-03-27T11:01:38.713Z,97312.45
2019-03-27T11:04:12.840Z,97314.92
2019-03-27T11:06:45.898Z,97314.98
2019-03-27T11:09:18.835Z,97315.98
2019-03-27T11:11:51.840Z,97313.07
2019-03-27T11:14:37.154Z,97315.32
2019-03-27T11:17:01.329Z,97318.05
2019-03-27T11:19:36.688Z,97319.14
2019-03-27T11:22:12.691Z,97318.45
2019-03-27T11:24:47.003Z,97312.30
2019-03-27T11:27:20.075Z,97310.16
2019-03-27T11:29:52.372Z,97302.98
2019-03-27T11:32:24.843Z,97298.76
2019-03-27T11:34:59.952Z,97295.70
2019-03-27T11:37:34.073Z,97291.33
2019-03-27T11:40:07.031Z,97291.70
2019-03-27T11:42:42.480Z,97289.48
2019-03-27T11:45:15.141Z,97278.84
2019-03-27T11:47:48.080Z,97279.97
2019-03-27T11:50:21.038Z,97284.74
2019-03-27T11:52:53.689Z,97285.36
2019-03-27T11:55:26.208Z,97276.66
2019-03-27T11:57:59.292Z,97284.73
2019-03-27T12:00:31.063Z,97282.61
2019-03-27T12:03:04.140Z,97285.97
2019-03-27T12:05:37.204Z,97276.90
2019-03-27T12:08:09.029Z,97282.55
2019-03-27T12:10:43.081Z,97284.95
2019-03-27T12:13:16.705Z,97292.22
2019-03-27T12:15:50.604Z,97288.16
2019-03-27T12:18:22.406Z,97292.05
2019-03-27T12:20:59.389Z,97289.80
2019-03-27T12:23:32.817Z,97294.41
2019-03-27T12:26:06.141Z,97290.70
2019-03-27T12:28:38.416Z,97288.68
2019-03-27T12:31:11.439Z,97288.16
2019-03-27T12:33:45.346Z,97288.41
2019-03-27T12:36:19.382Z,97285.28
2019-03-27T12:38:52.377Z,97289.47
2019-03-27T12:41:25.706Z,97287.36
2019-03-27T12:44:02.588Z,97293.45
2019-03-27T12:46:35.698Z,97297.02
2019-03-27T12:49:10.042Z,97303.37
2019-03-27T12:51:43.342Z,97307.09
2019-03-27T12:54:17.956Z,97311.66
2019-03-27T12:56:50.406Z,97315.00
2019-03-27T12:59:22.308Z,97317.84
2019-03-27T13:01:55.086Z,97309.61
2019-03-27T13:04:29.432Z,97312.67
2019-03-27T13:07:03.566Z,97312.34
2019-03-27T13:09:36.435Z,97307.20
2019-03-27T13:12:11.481Z,97305.45
2019-03-27T13:14:43.435Z,97302.94
2019-03-27T13:17:17.519Z,97297.84
2019-03-27T13:19:51.482Z,97296.93
2019-03-27T13:22:27.204Z,97296.14
2019-03-27T13:25:00.476Z,97301.16
2019-03-27T13:27:33.777Z,97297.23
2019-03-27T13:30:08.165Z,97295.27
2019-03-27T13:32:44.095Z,97302.59
2019-03-27T13:35:17.806Z,97296.39
2019-03-27T13:37:52.708Z,97298.58
2019-03-27T13:40:27.523Z,97296.72
2019-03-27T13:43:00.664Z,97299.16
2019-03-27T13:45:35.378Z,97300.58
2019-03-27T13:48:08.592Z,97294.17
2019-03-27T13:50:40.770Z,97296.11
2019-03-27T13:53:14.576Z,97289.84
2019-03-27T13:55:47.780Z,97289.80
2019-03-27T13:58:21.164Z,97290.79
2019-03-27T14:00:55.424Z,97281.75
2019-03-27T14:03:29.062Z,97280.02
2019-03-27T14:06:02.596Z,97283.22
2019-03-27T14:08:34.639Z,97288.06
2019-03-27T14:11:08.545Z,97293.70
2019-03-27T14:13:43.247Z,97292.84
2019-03-27T14:16:16.733Z,97295.34
2019-03-27T14:18:49.079Z,97292.28
2019-03-27T14:21:54.391Z,97291.81
2019-03-27T14:24:20.855Z,97291.36
2019-03-27T14:26:53.254Z,97291.48
2019-03-27T14:29:25.222Z,97295.55
2019-03-27T14:31:58.802Z,97294.23
2019-03-27T14:34:30.623Z,97293.55
2019-03-27T14:37:05.555Z,97296.02
2019-03-27T14:39:37.980Z,97297.59
2019-03-27T14:42:10.794Z,97292.33
2019-03-27T14:44:45.502Z,97301.64
2019-03-27T14:47:21.198Z,97296.44
2019-03-27T14:49:52.996Z,97304.16
2019-03-27T14:52:25.035Z,97303.03
2019-03-27T14:54:57.308Z,97305.95
2019-03-27T14:57:29.077Z,97300.70
2019-03-27T15:00:01.715Z,97300.09
2019-03-27T15:02:37.831Z,97300.06
2019-03-27T15:05:12.058Z,97295.36
2019-03-27T15:07:46.268Z,97296.31
2019-03-27T15:10:19.699Z,97301.84
2019-03-27T15:12:52.862Z,97302.89
2019-03-27T15:15:26.720Z,97302.67
2019-03-27T15:18:02.543Z,97306.79
2019-03-27T15:20:36.924Z,97310.52
2019-03-27T15:23:09.243Z,97313.75
2019-03-27T15:25:43.443Z,97307.65
2019-03-27T15:28:16.105Z,97306.22
2019-03-27T15:30:48.101Z,97304.51
2019-03-27T15:33:21.105Z,97298.23
2019-03-27T15:35:55.674Z,97297.17
2019-03-27T15:38:28.129Z,97303.67
2019-03-27T15:41:02.002Z,97301.97
2019-03-27T15:43:33.890Z,97303.27
2019-03-27T15:46:06.189Z,97306.11
2019-03-27T15:48:40.195Z,97301.02
2019-03-27T15:51:13.148Z,97304.53
2019-03-27T15:53:47.545Z,97299.67
2019-03-27T15:56:20.053Z,97303.50
2019-03-27T15:58:52.264Z,97299.27
2019-03-27T16:01:25.191Z,97300.55
2019-03-27T16:03:58.074Z,97293.41
2019-03-27T16:06:30.109Z,97295.14
2019-03-27T16:09:03.335Z,97300.14
2019-03-27T16:11:37.217Z,97300.80
2019-03-27T16:14:11.338Z,97300.39
2019-03-27T16:16:56.249Z,97302.94
2019-03-27T16:19:19.227Z,97305.27
2019-03-27T16:21:53.246Z,97311.20
2019-03-27T16:24:25.128Z,97311.07
2019-03-27T16:27:04.415Z,97311.22
2019-03-27T16:29:34.357Z,97311.91
2019-03-27T16:32:08.485Z,97318.53
2019-03-27T16:34:40.947Z,97320.14
2019-03-27T16:37:13.352Z,97317.59
2019-03-27T16:39:46.322Z,97327.20
2019-03-27T16:42:19.383Z,97322.87
2019-03-27T16:44:52.044Z,97327.30
2019-03-27T16:47:25.333Z,97325.81
2019-03-27T16:49:58.368Z,97327.20
2019-03-27T16:52:31.444Z,97332.59
2019-03-27T16:55:04.358Z,97323.09
2019-03-27T16:57:37.437Z,97323.89
2019-03-27T17:00:12.151Z,97323.38
2019-03-27T17:02:47.030Z,97318.53
2019-03-27T17:05:20.547Z,97322.72
2019-03-27T17:07:53.444Z,97330.22
2019-03-27T17:10:25.506Z,97329.64
2019-03-27T17:12:57.535Z,97334.13
2019-03-27T17:15:33.969Z,97338.49
2019-03-27T17:18:10.139Z,97341.44
2019-03-27T17:20:42.590Z,97340.82
2019-03-27T17:23:19.019Z,97345.66
2019-03-27T17:25:52.704Z,97336.74
2019-03-27T17:28:26.475Z,97342.47
2019-03-27T17:31:00.530Z,97341.36
2019-03-27T17:33:34.692Z,97348.49
2019-03-27T17:36:07.696Z,97356.53
2019-03-27T17:38:40.248Z,97366.53
2019-03-27T17:41:13.672Z,97360.23
2019-03-27T17:43:48.481Z,97371.05
2019-03-27T17:46:20.674Z,97363.65
2019-03-27T17:48:53.798Z,97369.34
2019-03-27T17:51:25.592Z,97373.28
2019-03-27T17:53:58.625Z,97371.56
2019-03-27T17:56:31.714Z,97375.51
2019-03-27T17:59:04.754Z,97378.84
2019-03-27T18:01:38.733Z,97385.44
2019-03-27T18:04:10.786Z,97384.16
2019-03-27T18:06:43.580Z,97385.08
2019-03-27T18:09:18.250Z,97378.84
2019-03-27T18:11:52.740Z,97384.70
2019-03-27T18:14:27.406Z,97385.34
2019-03-27T18:17:02.222Z,97384.81
2019-03-27T18:19:34.741Z,97392.31
2019-03-27T18:22:08.274Z,97390.27
2019-03-27T18:24:40.740Z,97395.77
2019-03-27T18:27:12.934Z,97398.06
2019-03-27T18:29:46.949Z,97403.78
2019-03-27T18:32:20.713Z,97404.48
2019-03-27T18:34:53.457Z,97410.78
2019-03-27T18:37:28.595Z,97413.12
2019-03-27T18:40:00.851Z,97411.05
2019-03-27T18:42:35.231Z,97415.10
2019-03-27T18:45:09.285Z,97420.66
2019-03-27T18:47:46.134Z,97420.59
2019-03-27T18:50:19.019Z,97421.41
2019-03-27T18:52:54.195Z,97423.07
2019-03-27T18:55:30.075Z,97424.48
2019-03-27T18:58:04.103Z,97428.55
2019-03-27T19:00:37.060Z,97432.13
2019-03-27T19:03:14.788Z,97431.02
2019-03-27T19:05:48.217Z,97431.35
2019-03-27T19:08:21.066Z,97434.05
2019-03-27T19:10:55.617Z,97438.42
2019-03-27T19:13:29.009Z,97435.61
2019-03-27T19:16:01.936Z,97441.41
2019-03-27T19:18:36.165Z,97441.34
2019-03-27T19:21:07.950Z,97447.27
2019-03-27T19:23:42.760Z,97447.20
2019-03-27T19:26:17.117Z,97444.59
2019-03-27T19:28:50.241Z,97450.44
2019-03-27T19:31:22.775Z,97447.84
2019-03-27T19:33:56.047Z,97449.52
2019-03-27T19:36:29.513Z,97448.97
2019-03-27T19:39:11.459Z,97453.05
2019-03-27T19:41:44.368Z,97449.74
2019-03-27T19:44:17.217Z,97452.44
2019-03-27T19:46:50.081Z,97451.39
2019-03-27T19:49:22.658Z,97458.10
2019-03-27T19:51:55.674Z,97455.85
2019-03-27T19:54:29.331Z,97458.37
2019-03-27T19:57:03.027Z,97460.98
2019-03-27T19:59:35.656Z,97466.07
2019-03-27T20:02:08.225Z,97460.08
2019-03-27T20:04:40.125Z,97461.43
2019-03-27T20:07:16.087Z,97465.02
2019-03-27T20:09:50.477Z,97466.27
2019-03-27T20:12:22.874Z,97468.68
2019-03-27T20:14:56.310Z,97476.34
2019-03-27T20:17:29.715Z,97474.56
2019-03-27T20:20:07.162Z,97474.56
2019-03-27T20:25:54.186Z,97473.88
2019-03-27T20:28:26.682Z,97473.88
2019-03-27T20:30:59.321Z,97479.40
2019-03-27T20:33:33.380Z,97473.88
2019-03-27T20:36:06.503Z,97469.61
2019-03-27T20:38:41.346Z,97468.34
2019-03-27T20:41:13.380Z,97469.63
2019-03-27T20:43:47.617Z,97473.66
2019-03-27T20:46:25.514Z,97475.34
2019-03-27T20:48:56.391Z,97476.77
2019-03-27T20:51:29.282Z,97475.08
2019-03-27T20:54:02.453Z,97469.08
2019-03-27T20:56:36.276Z,97473.81
2019-03-27T20:59:10.271Z,97478.41
2019-03-27T21:01:44.275Z,97473.50
2019-03-27T21:04:20.686Z,97474.88
2019-03-27T21:06:53.486Z,97477.27
2019-03-27T21:09:26.559Z,97476.81
2019-03-27T21:11:58.514Z,97473.80
2019-03-27T21:14:34.131Z,97470.17
2019-03-27T21:17:06.551Z,97468.98
2019-03-27T21:19:38.525Z,97475.56
2019-03-27T21:22:11.514Z,97472.91
2019-03-27T21:24:44.746Z,97469.27
2019-03-27T21:27:18.114Z,97473.52
2019-03-27T21:29:52.016Z,97475.19
2019-03-27T21:32:25.704Z,97477.09
2019-03-27T21:34:58.932Z,97476.94
2019-03-27T21:37:33.258Z,97471.24
2019-03-27T21:40:09.134Z,97475.88
2019-03-27T21:42:46.283Z,97477.94
2019-03-27T21:45:21.346Z,97485.57
2019-03-27T21:47:56.357Z,97485.30
2019-03-27T21:50:29.698Z,97485.05
2019-03-27T21:53:01.752Z,97487.84
2019-03-27T21:55:42.758Z,97485.30
2019-03-27T21:58:11.804Z,97491.47
2019-03-27T22:00:45.671Z,97488.13
2019-03-27T22:03:19.637Z,97491.41
2019-03-27T22:05:52.685Z,97489.42
2019-03-27T22:08:24.906Z,97494.48
2019-03-27T22:10:58.711Z,97486.81
2019-03-27T22:13:32.047Z,97495.48
2019-03-27T22:16:04.969Z,97495.66
2019-03-27T22:18:36.832Z,97498.98
2019-03-27T22:21:11.091Z,97496.56
2019-03-27T22:23:45.895Z,97504.79
2019-03-27T22:26:17.874Z,97496.56
2019-03-27T22:28:50.047Z,97498.14
2019-03-27T22:31:23.053Z,97495.79
2019-03-27T22:33:57.769Z,97501.89
2019-03-27T22:36:32.516Z,97499.96
2019-03-27T22:39:09.588Z,97499.41
2019-03-27T22:41:44.007Z,97502.42
2019-03-27T22:44:17.806Z,97494.45
2019-03-27T22:46:49.789Z,97495.72
2019-03-27T22:49:23.006Z,97496.97
2019-03-27T22:51:56.047Z,97498.81
2019-03-27T22:54:29.043Z,97494.81
2019-03-27T22:57:02.986Z,97494.30
2019-03-27T22:59:34.852Z,97499.38
2019-03-27T23:02:10.564Z,97501.16
2019-03-27T23:04:45.841Z,97500.69
2019-03-27T23:07:20.356Z,97501.44
2019-03-27T23:09:53.205Z,97496.84
2019-03-27T23:12:26.333Z,97498.11
2019-03-27T23:15:00.726Z,97497.00
2019-03-27T23:17:35.392Z,97498.86
2019-03-27T23:20:10.603Z,97493.86
2019-03-27T23:22:44.557Z,97489.67
2019-03-27T23:25:19.046Z,97495.41
2019-03-27T23:27:53.984Z,97494.02
2019-03-27T23:30:26.761Z,97492.86
2019-03-27T23:32:59.948Z,97491.25
2019-03-27T23:35:32.257Z,97486.26
2019-03-27T23:38:05.846Z,97490.45
2019-03-27T23:40:38.158Z,97490.64
2019-03-27T23:43:13.354Z,97490.89
2019-03-27T23:45:47.196Z,97489.56
2019-03-27T23:48:24.197Z,97490.23
2019-03-27T23:50:57.353Z,97490.71
2019-03-27T23:53:32.416Z,97492.77
2019-03-27T23:56:16.058Z,97490.46
2019-03-27T23:58:41.158Z,97497.48
